Keiho Maru — JJ4010 — position and weather

sailwx.info

Track history (hours):
 
Tides and Currents Weather Stations Pressure Air Temp Water Temp Dewpoint Dewpoint Depression Visibility Wind Speed Wind Dir Waves Ship Positions

Keiho Maru

Last reported at 2017-Feb-26 08:09 UTC. Time now 2017-Feb-26 14:45 UTC.
Position N 34°41' E 135°12'.

Length 38 m; draft 3.6 m.

Type: Tug. MMSI: 431401501.

Date/timePositionNaut miles runAvg speedWind from/ knotsBaromVisibWave heightAir tempDewpointWater temp
2017-Feb-26 08:09N 34°41' E 135°12'5 7.9
2017-Feb-26 07:33N 34°41' E 135°18'8 3.2
2017-Feb-26 05:07N 34°38' E 135°27'0 0.0
2017-Feb-26 04:04N 34°38' E 135°27'0 0.0
2017-Feb-26 02:32N 34°38' E 135°27'0 0.0
2017-Feb-26 01:25N 34°38' E 135°27'0 0.0
2017-Feb-26 00:33N 34°38' E 135°27'2 1.7
2017-Feb-25 23:33N 34°39' E 135°25'9 9.2
2017-Feb-25 22:33N 34°41' E 135°14'2 1.8
2017-Feb-25 21:33N 34°41' E 135°12'0 0.0
2017-Feb-24 23:33N 34°41' E 135°12'4 4.0
2017-Feb-24 22:33N 34°42' E 135°17'1 1.1
2017-Feb-24 21:33N 34°41' E 135°17'0 0.0
2017-Feb-24 20:33N 34°41' E 135°17'0 0.0
2017-Feb-24 19:33N 34°41' E 135°17'2 2.1
2017-Feb-24 18:33N 34°40' E 135°14'0 0.1
2017-Feb-24 17:33N 34°40' E 135°14'0 0.0
2017-Feb-24 16:33N 34°40' E 135°14'1 1.5
2017-Feb-24 15:33N 34°41' E 135°16'1 1.4
2017-Feb-24 14:32N 34°41' E 135°17'0 0.0
2017-Feb-24 13:33N 34°41' E 135°17'0 0.0
2017-Feb-24 12:33N 34°41' E 135°17'3 2.8
2017-Feb-24 11:33N 34°40' E 135°14'2 1.9
2017-Feb-24 10:33N 34°39' E 135°16'4 3.6
2017-Feb-24 09:33N 34°41' E 135°12'0 0.0
2017-Feb-24 08:33N 34°41' E 135°12'0 0.0
2017-Feb-24 07:33N 34°41' E 135°12'0 0.0
2017-Feb-24 06:33N 34°41' E 135°12'0 0.0
2017-Feb-24 05:33N 34°41' E 135°12'0 0.0
2017-Feb-24 04:33N 34°41' E 135°12'0 0.0
2017-Feb-24 03:33N 34°41' E 135°12'0 0.0
2017-Feb-24 02:33N 34°41' E 135°12'0 0.0
2017-Feb-24 01:33N 34°41' E 135°12'0 0.0
2017-Feb-24 00:33N 34°41' E 135°12'0 0.0
2017-Feb-23 23:33N 34°40' E 135°12'4 4.3
2017-Feb-23 22:33N 34°42' E 135°17'4 3.6
2017-Feb-23 21:33N 34°41' E 135°13'1 0.7
2017-Feb-23 20:33N 34°41' E 135°12'2 0.2
2017-Feb-23 08:33N 34°40' E 135°14'0 0.4
2017-Feb-23 07:33N 34°40' E 135°14'3 2.5
2017-Feb-23 06:33N 34°41' E 135°17'1 0.8
2017-Feb-23 05:32N 34°41' E 135°17'0 0.0
2017-Feb-23 04:32N 34°41' E 135°17'0 0.0
2017-Feb-23 03:33N 34°41' E 135°17'0 0.0
2017-Feb-23 02:33N 34°41' E 135°17'5 5.3
2017-Feb-23 01:33N 34°41' E 135°23'9 8.9
2017-Feb-23 00:34N 34°41' E 135°12'2 1.8
2017-Feb-22 23:34N 34°40' E 135°14'1 0.8
2017-Feb-22 22:34N 34°40' E 135°15'3 2.5
2017-Feb-22 21:34N 34°41' E 135°12'0 0.0
2017-Feb-22 10:33N 34°41' E 135°12'10 9.6
2017-Feb-22 09:33N 34°37' E 135°01'12 1.0
2017-Feb-21 21:18N 34°40' E 134°48'5 6.0
2017-Feb-21 20:27N 34°37' E 134°53'1213.0
2017-Feb-21 19:32N 34°37' E 135°07'5 5.2
2017-Feb-21 18:33N 34°41' E 135°12'0 0.0
2017-Feb-21 06:33N 34°41' E 135°12'0 0.0
2017-Feb-21 05:33N 34°41' E 135°12'0 0.0
2017-Feb-21 04:33N 34°41' E 135°12'6 5.5
2017-Feb-21 03:33N 34°40' E 135°19'6 5.6
2017-Feb-21 02:33N 34°38' E 135°25'8 8.3
2017-Feb-21 01:33N 34°42' E 135°16'0 0.0
2017-Feb-21 00:33N 34°42' E 135°16'1 0.6
2017-Feb-20 23:33N 34°42' E 135°16'2 2.2
2017-Feb-20 22:33N 34°40' E 135°16'3 2.9
2017-Feb-20 21:33N 34°41' E 135°12'0 0.0
2017-Feb-20 06:33N 34°41' E 135°12'0 0.0
2017-Feb-20 05:33N 34°41' E 135°12'0 0.0
2017-Feb-20 04:34N 34°41' E 135°12'2 1.7
2017-Feb-20 03:33N 34°40' E 135°14'2 1.7
2017-Feb-20 02:34N 34°41' E 135°12'0 0.0
2017-Feb-20 01:33N 34°41' E 135°12'0 0.0
2017-Feb-20 00:33N 34°41' E 135°12'2 2.1
2017-Feb-19 23:34N 34°42' E 135°14'1 1.2
2017-Feb-19 22:33N 34°41' E 135°15'2 2.2
2017-Feb-19 21:33N 34°41' E 135°12'1 0.1
2017-Feb-19 07:33N 34°41' E 135°13'3 3.1
2017-Feb-19 06:33N 34°41' E 135°17'4 4.2
2017-Feb-19 05:33N 34°41' E 135°12'0 0.0
2017-Feb-19 04:33N 34°41' E 135°12'0 0.0
2017-Feb-19 03:33N 34°41' E 135°12'0 0.0
2017-Feb-19 02:33N 34°41' E 135°12'0 0.0
2017-Feb-19 01:33N 34°41' E 135°12'0 0.0
2017-Feb-19 00:33N 34°41' E 135°12'0 0.0
2017-Feb-18 23:33N 34°41' E 135°12'0 0.0
2017-Feb-18 08:10N 34°41' E 135°12'1 2.0
2017-Feb-18 07:33N 34°41' E 135°14'0 0.5
2017-Feb-18 06:33N 34°40' E 135°14'0 0.0
2017-Feb-18 05:33N 34°40' E 135°14'0 0.0
2017-Feb-18 04:33N 34°40' E 135°14'1 0.8
2017-Feb-18 03:33N 34°41' E 135°13'1 0.8
2017-Feb-18 02:33N 34°41' E 135°12'0 0.0
2017-Feb-18 01:33N 34°41' E 135°12'0 0.0
2017-Feb-18 00:33N 34°41' E 135°12'2 1.8
2017-Feb-17 23:33N 34°40' E 135°14'1 1.3
2017-Feb-17 22:33N 34°39' E 135°15'1 1.4
2017-Feb-17 21:33N 34°41' E 135°14'2 1.8
2017-Feb-17 20:33N 34°41' E 135°12'0 0.0
2017-Feb-17 07:22N 34°41' E 135°12'1 1.3
2017-Feb-17 06:33N 34°40' E 135°13'0 0.1
2017-Feb-17 05:34N 34°40' E 135°13'0 0.0
2017-Feb-17 04:34N 34°40' E 135°13'2 2.2
2017-Feb-17 03:34N 34°40' E 135°16'8 8.2
2017-Feb-17 02:34N 34°39' E 135°26'3 3.5
2017-Feb-17 01:33N 34°39' E 135°21'8 7.7
2017-Feb-17 00:34N 34°41' E 135°12'0 0.0
2017-Feb-16 23:34N 34°41' E 135°12'  
Track history (hours):
 
Tides and Currents Weather Stations Pressure Air Temp Water Temp Dewpoint Dewpoint Depression Visibility Wind Speed Wind Dir Waves Ship Positions

Keiho Maru

Last reported at 2017-Feb-26 08:09 UTC. Time now 2017-Feb-26 14:45 UTC.
Position N 34°41' E 135°12'.

Length 38 m; draft 3.6 m.

Type: Tug. MMSI: 431401501.

Date/timePositionNaut miles runAvg speedWind from/ knotsBaromVisibWave heightAir tempDewpointWater temp
2017-Feb-26 08:09N 34°41' E 135°12'5 7.9
2017-Feb-26 07:33N 34°41' E 135°18'8 3.2
2017-Feb-26 05:07N 34°38' E 135°27'0 0.0
2017-Feb-26 04:04N 34°38' E 135°27'0 0.0
2017-Feb-26 02:32N 34°38' E 135°27'0 0.0
2017-Feb-26 01:25N 34°38' E 135°27'0 0.0
2017-Feb-26 00:33N 34°38' E 135°27'2 1.7
2017-Feb-25 23:33N 34°39' E 135°25'9 9.2
2017-Feb-25 22:33N 34°41' E 135°14'2 1.8
2017-Feb-25 21:33N 34°41' E 135°12'0 0.0
2017-Feb-24 23:33N 34°41' E 135°12'4 4.0
2017-Feb-24 22:33N 34°42' E 135°17'1 1.1
2017-Feb-24 21:33N 34°41' E 135°17'0 0.0
2017-Feb-24 20:33N 34°41' E 135°17'0 0.0
2017-Feb-24 19:33N 34°41' E 135°17'2 2.1
2017-Feb-24 18:33N 34°40' E 135°14'0 0.1
2017-Feb-24 17:33N 34°40' E 135°14'0 0.0
2017-Feb-24 16:33N 34°40' E 135°14'1 1.5
2017-Feb-24 15:33N 34°41' E 135°16'1 1.4
2017-Feb-24 14:32N 34°41' E 135°17'0 0.0
2017-Feb-24 13:33N 34°41' E 135°17'0 0.0
2017-Feb-24 12:33N 34°41' E 135°17'3 2.8
2017-Feb-24 11:33N 34°40' E 135°14'2 1.9
2017-Feb-24 10:33N 34°39' E 135°16'4 3.6
2017-Feb-24 09:33N 34°41' E 135°12'0 0.0
2017-Feb-24 08:33N 34°41' E 135°12'0 0.0
2017-Feb-24 07:33N 34°41' E 135°12'0 0.0
2017-Feb-24 06:33N 34°41' E 135°12'0 0.0
2017-Feb-24 05:33N 34°41' E 135°12'0 0.0
2017-Feb-24 04:33N 34°41' E 135°12'0 0.0
2017-Feb-24 03:33N 34°41' E 135°12'0 0.0
2017-Feb-24 02:33N 34°41' E 135°12'0 0.0
2017-Feb-24 01:33N 34°41' E 135°12'0 0.0
2017-Feb-24 00:33N 34°41' E 135°12'0 0.0
2017-Feb-23 23:33N 34°40' E 135°12'4 4.3
2017-Feb-23 22:33N 34°42' E 135°17'4 3.6
2017-Feb-23 21:33N 34°41' E 135°13'1 0.7
2017-Feb-23 20:33N 34°41' E 135°12'2 0.2
2017-Feb-23 08:33N 34°40' E 135°14'0 0.4
2017-Feb-23 07:33N 34°40' E 135°14'3 2.5
2017-Feb-23 06:33N 34°41' E 135°17'1 0.8
2017-Feb-23 05:32N 34°41' E 135°17'0 0.0
2017-Feb-23 04:32N 34°41' E 135°17'0 0.0
2017-Feb-23 03:33N 34°41' E 135°17'0 0.0
2017-Feb-23 02:33N 34°41' E 135°17'5 5.3
2017-Feb-23 01:33N 34°41' E 135°23'9 8.9
2017-Feb-23 00:34N 34°41' E 135°12'2 1.8
2017-Feb-22 23:34N 34°40' E 135°14'1 0.8
2017-Feb-22 22:34N 34°40' E 135°15'3 2.5
2017-Feb-22 21:34N 34°41' E 135°12'0 0.0
2017-Feb-22 10:33N 34°41' E 135°12'10 9.6
2017-Feb-22 09:33N 34°37' E 135°01'12 1.0
2017-Feb-21 21:18N 34°40' E 134°48'5 6.0
2017-Feb-21 20:27N 34°37' E 134°53'1213.0
2017-Feb-21 19:32N 34°37' E 135°07'5 5.2
2017-Feb-21 18:33N 34°41' E 135°12'0 0.0
2017-Feb-21 06:33N 34°41' E 135°12'0 0.0
2017-Feb-21 05:33N 34°41' E 135°12'0 0.0
2017-Feb-21 04:33N 34°41' E 135°12'6 5.5
2017-Feb-21 03:33N 34°40' E 135°19'6 5.6
2017-Feb-21 02:33N 34°38' E 135°25'8 8.3
2017-Feb-21 01:33N 34°42' E 135°16'0 0.0
2017-Feb-21 00:33N 34°42' E 135°16'1 0.6
2017-Feb-20 23:33N 34°42' E 135°16'2 2.2
2017-Feb-20 22:33N 34°40' E 135°16'3 2.9
2017-Feb-20 21:33N 34°41' E 135°12'0 0.0
2017-Feb-20 06:33N 34°41' E 135°12'0 0.0
2017-Feb-20 05:33N 34°41' E 135°12'0 0.0
2017-Feb-20 04:34N 34°41' E 135°12'2 1.7
2017-Feb-20 03:33N 34°40' E 135°14'2 1.7
2017-Feb-20 02:34N 34°41' E 135°12'0 0.0
2017-Feb-20 01:33N 34°41' E 135°12'0 0.0
2017-Feb-20 00:33N 34°41' E 135°12'2 2.1
2017-Feb-19 23:34N 34°42' E 135°14'1 1.2
2017-Feb-19 22:33N 34°41' E 135°15'2 2.2
2017-Feb-19 21:33N 34°41' E 135°12'1 0.1
2017-Feb-19 07:33N 34°41' E 135°13'3 3.1
2017-Feb-19 06:33N 34°41' E 135°17'4 4.2
2017-Feb-19 05:33N 34°41' E 135°12'0 0.0
2017-Feb-19 04:33N 34°41' E 135°12'0 0.0
2017-Feb-19 03:33N 34°41' E 135°12'0 0.0
2017-Feb-19 02:33N 34°41' E 135°12'0 0.0
2017-Feb-19 01:33N 34°41' E 135°12'0 0.0
2017-Feb-19 00:33N 34°41' E 135°12'0 0.0
2017-Feb-18 23:33N 34°41' E 135°12'0 0.0
2017-Feb-18 08:10N 34°41' E 135°12'1 2.0
2017-Feb-18 07:33N 34°41' E 135°14'0 0.5
2017-Feb-18 06:33N 34°40' E 135°14'0 0.0
2017-Feb-18 05:33N 34°40' E 135°14'0 0.0
2017-Feb-18 04:33N 34°40' E 135°14'1 0.8
2017-Feb-18 03:33N 34°41' E 135°13'1 0.8
2017-Feb-18 02:33N 34°41' E 135°12'0 0.0
2017-Feb-18 01:33N 34°41' E 135°12'0 0.0
2017-Feb-18 00:33N 34°41' E 135°12'2 1.8
2017-Feb-17 23:33N 34°40' E 135°14'1 1.3
2017-Feb-17 22:33N 34°39' E 135°15'1 1.4
2017-Feb-17 21:33N 34°41' E 135°14'2 1.8
2017-Feb-17 20:33N 34°41' E 135°12'0 0.0
2017-Feb-17 07:22N 34°41' E 135°12'1 1.3
2017-Feb-17 06:33N 34°40' E 135°13'0 0.1
2017-Feb-17 05:34N 34°40' E 135°13'0 0.0
2017-Feb-17 04:34N 34°40' E 135°13'2 2.2
2017-Feb-17 03:34N 34°40' E 135°16'8 8.2
2017-Feb-17 02:34N 34°39' E 135°26'3 3.5
2017-Feb-17 01:33N 34°39' E 135°21'8 7.7
2017-Feb-17 00:34N 34°41' E 135°12'0 0.0
2017-Feb-16 23:34N 34°41' E 135°12'  

Dump ship's entire track history